Time;durP1;ratioP1;P1;durP2;ratioP2;P2;SDS_P1;SDS_P2;PMS_P1;PMS_P2;Temp;Humidity;BMP_temperature;BMP_pressure;BME280_temperature;BME280_humidity;BME280_pressure;Samples;Min_cycle;Max_cycle;Signal;HPM_P1;HPM_P2
2023/08/29 00:01:10;;;;;;;7.63;3.42;;;;;;;;;;4999125;28;20555;-67
2023/08/29 00:03:35;;;;;;;4.97;3.30;;;;;;;;;;4997974;28;20873;-66
2023/08/29 00:06:03;;;;;;;5.97;3.70;;;;;;;;;;4997364;28;20309;-66
2023/08/29 00:08:29;;;;;;;5.13;3.63;;;;;;;;;;4997604;28;20191;-66
2023/08/29 00:10:57;;;;;;;4.45;3.28;;;;;;;;;;4998542;28;20186;-66
2023/08/29 00:13:23;;;;;;;3.85;2.78;;;;;;;;;;4999112;28;21048;-66
2023/08/29 00:15:48;;;;;;;4.90;3.40;;;;;;;;;;5017548;22;20245;-71
2023/08/29 00:18:13;;;;;;;6.78;3.67;;;;;;;;;;5008243;28;20273;-71
2023/08/29 00:20:39;;;;;;;4.03;3.20;;;;;;;;;;5008878;28;20217;-71
2023/08/29 00:23:04;;;;;;;6.95;3.78;;;;;;;;;;5008413;28;20189;-70
2023/08/29 00:25:29;;;;;;;5.70;3.60;;;;;;;;;;5007673;28;20611;-71
2023/08/29 00:27:54;;;;;;;4.68;3.38;;;;;;;;;;5006973;28;20240;-71
2023/08/29 00:30:19;;;;;;;4.35;3.40;;;;;;;;;;5007751;28;20229;-71
2023/08/29 00:32:44;;;;;;;6.50;3.53;;;;;;;;;;5008510;28;20309;-71
2023/08/29 00:35:10;;;;;;;6.40;3.55;;;;;;;;;;5008310;28;20220;-70
2023/08/29 00:37:35;;;;;;;4.72;3.40;;;;;;;;;;5004836;28;20187;-70
2023/08/29 00:40:00;;;;;;;4.60;3.50;;;;;;;;;;5006592;28;20613;-70
2023/08/29 00:42:25;;;;;;;6.20;3.92;;;;;;;;;;5008458;28;20586;-70
2023/08/29 00:44:51;;;;;;;6.93;3.20;;;;;;;;;;5007111;28;20202;-70
2023/08/29 00:47:16;;;;;;;5.75;3.38;;;;;;;;;;5007104;28;20189;-70
2023/08/29 00:49:41;;;;;;;5.80;3.67;;;;;;;;;;5008176;28;20640;-70
2023/08/29 00:52:07;;;;;;;5.18;3.67;;;;;;;;;;5005534;28;20236;-70
2023/08/29 00:54:32;;;;;;;4.72;3.55;;;;;;;;;;5006285;28;20330;-70
2023/08/29 00:56:58;;;;;;;6.97;2.63;;;;;;;;;;5006984;28;20220;-70
2023/08/29 00:59:23;;;;;;;4.32;2.90;;;;;;;;;;5007078;28;20203;-70
2023/08/29 01:01:48;;;;;;;4.80;3.15;;;;;;;;;;5006885;28;20950;-69
2023/08/29 01:04:13;;;;;;;11.63;3.67;;;;;;;;;;5006790;28;20199;-71
2023/08/29 01:06:39;;;;;;;5.45;3.40;;;;;;;;;;5005072;28;20683;-69
2023/08/29 01:09:07;;;;;;;7.07;3.22;;;;;;;;;;5006414;28;20314;-70
2023/08/29 01:11:45;;;;;;;6.68;3.47;;;;;;;;;;5005363;28;20188;-69
2023/08/29 01:14:10;;;;;;;4.57;3.33;;;;;;;;;;5007470;28;20630;-70
2023/08/29 01:16:41;;;;;;;3.78;2.35;;;;;;;;;;5005644;28;20191;-70
2023/08/29 01:19:13;;;;;;;6.40;4.13;;;;;;;;;;5006398;28;20894;-71
2023/08/29 01:21:54;;;;;;;4.28;3.15;;;;;;;;;;5007384;28;20197;-70
2023/08/29 01:24:28;;;;;;;4.28;3.00;;;;;;;;;;5006698;28;20206;-70
2023/08/29 01:26:54;;;;;;;9.05;3.78;;;;;;;;;;5005754;28;20182;-70
2023/08/29 01:29:20;;;;;;;4.95;3.45;;;;;;;;;;5005008;28;20280;-69
2023/08/29 01:31:45;;;;;;;4.93;3.42;;;;;;;;;;5006959;28;20233;-70
2023/08/29 01:34:12;;;;;;;4.72;3.42;;;;;;;;;;5007008;28;20391;-71
2023/08/29 01:36:40;;;;;;;4.90;3.10;;;;;;;;;;5007322;28;20179;-71
2023/08/29 01:39:05;;;;;;;6.53;3.20;;;;;;;;;;5006307;28;20854;-71
2023/08/29 01:41:31;;;;;;;5.03;3.08;;;;;;;;;;5006505;28;20199;-71
2023/08/29 01:43:56;;;;;;;6.35;3.33;;;;;;;;;;5006083;28;20257;-71
2023/08/29 01:46:21;;;;;;;6.43;3.50;;;;;;;;;;5004302;28;20280;-71
2023/08/29 01:48:47;;;;;;;4.32;3.53;;;;;;;;;;5006339;28;20193;-71
2023/08/29 01:51:12;;;;;;;5.40;3.17;;;;;;;;;;5005047;28;20191;-71
2023/08/29 01:53:38;;;;;;;4.80;3.03;;;;;;;;;;5004896;28;20877;-71
2023/08/29 01:56:04;;;;;;;6.07;4.13;;;;;;;;;;5006791;28;20202;-71
2023/08/29 01:58:29;;;;;;;6.05;3.53;;;;;;;;;;5007516;28;20260;-70
2023/08/29 02:00:55;;;;;;;5.63;3.60;;;;;;;;;;5007368;28;20237;-69
2023/08/29 02:03:21;;;;;;;4.30;2.97;;;;;;;;;;5003914;28;20502;-71
2023/08/29 02:05:46;;;;;;;4.97;3.30;;;;;;;;;;5005254;28;20301;-69
2023/08/29 02:08:11;;;;;;;3.50;2.65;;;;;;;;;;5002844;28;21015;-70
2023/08/29 02:10:36;;;;;;;6.05;3.13;;;;;;;;;;5003721;28;20210;-70
2023/08/29 02:13:02;;;;;;;2.97;2.58;;;;;;;;;;5008157;28;20226;-70
2023/08/29 02:15:27;;;;;;;6.50;2.45;;;;;;;;;;5009459;28;20262;-70
2023/08/29 02:17:53;;;;;;;3.22;2.20;;;;;;;;;;5011218;28;20226;-70
2023/08/29 02:20:18;;;;;;;10.77;2.63;;;;;;;;;;5009526;28;20702;-71
2023/08/29 02:22:43;;;;;;;4.05;2.58;;;;;;;;;;5011609;28;20640;-70
2023/08/29 02:25:09;;;;;;;2.38;1.60;;;;;;;;;;5010597;28;21057;-70
2023/08/29 02:27:34;;;;;;;5.03;2.40;;;;;;;;;;5011422;28;20652;-70
2023/08/29 02:30:00;;;;;;;3.83;2.23;;;;;;;;;;5010884;28;20326;-71
2023/08/29 02:32:25;;;;;;;2.93;2.10;;;;;;;;;;5010045;28;20321;-70
2023/08/29 02:34:50;;;;;;;1.77;1.57;;;;;;;;;;5010877;28;20245;-70
2023/08/29 02:37:15;;;;;;;3.17;1.90;;;;;;;;;;5009570;28;20194;-70
2023/08/29 02:39:41;;;;;;;3.10;2.10;;;;;;;;;;5009873;28;20221;-70
2023/08/29 02:42:07;;;;;;;2.73;1.80;;;;;;;;;;5009071;28;20179;-70
2023/08/29 02:44:32;;;;;;;2.10;1.73;;;;;;;;;;5009787;28;20250;-70
2023/08/29 02:46:57;;;;;;;1.73;1.47;;;;;;;;;;5010421;28;20776;-70
2023/08/29 02:49:22;;;;;;;1.90;1.70;;;;;;;;;;5010165;28;20328;-70
2023/08/29 02:51:48;;;;;;;3.20;1.93;;;;;;;;;;5017581;28;20822;-71
2023/08/29 02:54:13;;;;;;;2.73;1.70;;;;;;;;;;5020975;28;20714;-69
2023/08/29 02:56:38;;;;;;;2.00;1.53;;;;;;;;;;5010722;28;20198;-70
2023/08/29 02:59:04;;;;;;;1.93;1.50;;;;;;;;;;5009240;28;20264;-70
2023/08/29 03:01:29;;;;;;;2.70;1.83;;;;;;;;;;5009112;28;20659;-71
2023/08/29 03:03:54;;;;;;;2.40;1.50;;;;;;;;;;5010367;28;20271;-71
2023/08/29 03:06:19;;;;;;;5.33;2.23;;;;;;;;;;5008327;28;20284;-71
2023/08/29 03:08:44;;;;;;;3.40;1.80;;;;;;;;;;5007665;28;20209;-70
2023/08/29 03:11:10;;;;;;;2.33;1.80;;;;;;;;;;5008419;28;20837;-71
2023/08/29 03:13:35;;;;;;;2.27;1.50;;;;;;;;;;5009288;28;20221;-71
2023/08/29 03:16:00;;;;;;;2.43;1.90;;;;;;;;;;5009520;28;20240;-69
2023/08/29 03:18:26;;;;;;;2.97;2.00;;;;;;;;;;5008939;28;20612;-71
2023/08/29 03:20:52;;;;;;;4.57;2.53;;;;;;;;;;5008434;28;20304;-70
2023/08/29 03:23:17;;;;;;;2.97;2.60;;;;;;;;;;5010013;28;20187;-71
2023/08/29 03:25:42;;;;;;;2.90;2.43;;;;;;;;;;5008827;28;20589;-71
2023/08/29 03:28:07;;;;;;;4.60;2.47;;;;;;;;;;5008446;28;21059;-70
2023/08/29 03:30:33;;;;;;;4.20;2.33;;;;;;;;;;5009752;28;20195;-71
2023/08/29 03:32:58;;;;;;;5.73;2.10;;;;;;;;;;5009373;28;20199;-69
2023/08/29 03:35:23;;;;;;;4.43;2.10;;;;;;;;;;5005815;28;20301;-71
2023/08/29 03:37:48;;;;;;;3.13;2.43;;;;;;;;;;5008235;28;20652;-69
2023/08/29 03:40:14;;;;;;;2.67;2.30;;;;;;;;;;5009494;28;20218;-69
2023/08/29 03:42:39;;;;;;;3.20;2.40;;;;;;;;;;5008894;28;20190;-69
2023/08/29 03:45:05;;;;;;;4.50;2.60;;;;;;;;;;5008656;28;20223;-70
2023/08/29 03:47:31;;;;;;;3.27;2.37;;;;;;;;;;5007230;28;20988;-69
2023/08/29 03:49:57;;;;;;;4.23;3.00;;;;;;;;;;5008949;28;20199;-69
2023/08/29 03:52:22;;;;;;;7.30;3.30;;;;;;;;;;5006915;28;20201;-70
2023/08/29 03:54:48;;;;;;;4.13;3.03;;;;;;;;;;5008649;28;20246;-69
2023/08/29 03:57:13;;;;;;;4.67;3.20;;;;;;;;;;5008596;28;20584;-69
2023/08/29 03:59:38;;;;;;;4.33;3.13;;;;;;;;;;5008807;28;20580;-71
2023/08/29 04:02:06;;;;;;;3.90;3.30;;;;;;;;;;5007733;28;20189;-71
2023/08/29 04:04:31;;;;;;;3.60;2.70;;;;;;;;;;5007488;28;20553;-70
2023/08/29 04:06:56;;;;;;;3.83;3.23;;;;;;;;;;5007774;28;20191;-70
2023/08/29 04:09:21;;;;;;;6.90;4.50;;;;;;;;;;5004623;28;20202;-71
2023/08/29 04:11:46;;;;;;;5.93;4.37;;;;;;;;;;5008333;28;20975;-70
2023/08/29 04:14:12;;;;;;;6.57;4.10;;;;;;;;;;5008008;28;20215;-70
2023/08/29 04:16:37;;;;;;;6.88;3.67;;;;;;;;;;5008141;28;20198;-71
2023/08/29 04:19:02;;;;;;;5.40;3.45;;;;;;;;;;5006236;28;20213;-70
2023/08/29 04:21:27;;;;;;;3.95;3.10;;;;;;;;;;5008889;28;20183;-70
2023/08/29 04:23:53;;;;;;;6.57;3.67;;;;;;;;;;5007332;28;20355;-70
2023/08/29 04:26:18;;;;;;;3.17;2.83;;;;;;;;;;5008706;28;20175;-70
2023/08/29 04:28:43;;;;;;;4.50;3.78;;;;;;;;;;5009051;28;20216;-70
2023/08/29 04:31:09;;;;;;;3.55;3.25;;;;;;;;;;5006451;28;20187;-70
2023/08/29 04:33:34;;;;;;;3.85;3.47;;;;;;;;;;5005672;28;20212;-70
2023/08/29 04:35:59;;;;;;;3.95;3.65;;;;;;;;;;5008229;28;20202;-70
2023/08/29 04:38:24;;;;;;;4.15;3.28;;;;;;;;;;5008547;28;20654;-70
2023/08/29 04:40:52;;;;;;;6.78;3.95;;;;;;;;;;5007329;28;20281;-70
2023/08/29 04:43:17;;;;;;;4.43;4.03;;;;;;;;;;5008871;28;20191;-70
2023/08/29 04:45:44;;;;;;;6.50;3.38;;;;;;;;;;5008647;28;20209;-71
2023/08/29 04:48:09;;;;;;;5.30;3.70;;;;;;;;;;5008926;28;21346;-69
2023/08/29 04:50:35;;;;;;;4.88;4.30;;;;;;;;;;5008818;28;20996;-69
2023/08/29 04:53:00;;;;;;;4.30;3.47;;;;;;;;;;5008334;28;20187;-70
2023/08/29 04:55:26;;;;;;;4.93;4.03;;;;;;;;;;5006305;28;20210;-70
2023/08/29 04:57:54;;;;;;;4.93;4.43;;;;;;;;;;5007896;28;20227;-70
2023/08/29 05:00:19;;;;;;;5.38;4.40;;;;;;;;;;5007261;28;20215;-70
2023/08/29 05:02:44;;;;;;;6.45;4.13;;;;;;;;;;5003274;28;20249;-71
2023/08/29 05:05:10;;;;;;;5.43;4.28;;;;;;;;;;5007337;28;20207;-69
2023/08/29 05:07:35;;;;;;;4.70;4.20;;;;;;;;;;5006944;28;20281;-70
2023/08/29 05:10:00;;;;;;;5.00;4.18;;;;;;;;;;5006978;28;20265;-70
2023/08/29 05:12:26;;;;;;;7.30;5.43;;;;;;;;;;5005891;28;20273;-70
2023/08/29 05:14:53;;;;;;;5.72;5.03;;;;;;;;;;5007211;28;20217;-70
2023/08/29 05:17:18;;;;;;;6.35;5.70;;;;;;;;;;5006279;28;20222;-70
2023/08/29 05:19:44;;;;;;;6.32;5.13;;;;;;;;;;5006075;28;20411;-69
2023/08/29 05:22:09;;;;;;;9.13;7.90;;;;;;;;;;5007983;28;20179;-69
2023/08/29 05:24:34;;;;;;;8.35;7.18;;;;;;;;;;5008212;28;21317;-71
2023/08/29 05:27:00;;;;;;;8.88;7.10;;;;;;;;;;5006153;28;20183;-70
2023/08/29 05:29:25;;;;;;;10.02;7.65;;;;;;;;;;5006681;28;20290;-70
2023/08/29 05:31:50;;;;;;;11.30;7.93;;;;;;;;;;5008000;28;20581;-70
2023/08/29 05:34:15;;;;;;;8.35;6.63;;;;;;;;;;5008040;28;20198;-70
2023/08/29 05:36:41;;;;;;;11.02;7.15;;;;;;;;;;5007775;28;20183;-69
2023/08/29 05:39:06;;;;;;;7.47;6.32;;;;;;;;;;5007999;28;20206;-70
2023/08/29 05:41:31;;;;;;;9.85;7.07;;;;;;;;;;5006483;28;20187;-70
2023/08/29 05:43:56;;;;;;;8.60;5.65;;;;;;;;;;5008420;28;20179;-70
2023/08/29 05:46:21;;;;;;;7.47;5.30;;;;;;;;;;5005561;28;21515;-69
2023/08/29 05:48:47;;;;;;;6.55;5.95;;;;;;;;;;5008760;28;20187;-69
2023/08/29 05:51:12;;;;;;;8.07;5.53;;;;;;;;;;5012065;28;20273;-70
2023/08/29 05:53:37;;;;;;;6.32;5.65;;;;;;;;;;5010853;28;20946;-70
2023/08/29 05:56:03;;;;;;;6.28;5.68;;;;;;;;;;5011600;28;20198;-71
2023/08/29 05:58:29;;;;;;;5.97;5.00;;;;;;;;;;5011523;28;20636;-70
2023/08/29 06:00:55;;;;;;;6.22;5.32;;;;;;;;;;5008440;28;20310;-71
2023/08/29 06:03:20;;;;;;;5.95;5.43;;;;;;;;;;5008641;28;21021;-71
2023/08/29 06:05:48;;;;;;;5.43;4.90;;;;;;;;;;5011387;28;20265;-71
2023/08/29 06:08:14;;;;;;;7.20;5.40;;;;;;;;;;5010209;28;20561;-71
2023/08/29 06:10:39;;;;;;;6.65;5.47;;;;;;;;;;5010894;28;20206;-71
2023/08/29 06:13:04;;;;;;;6.93;5.30;;;;;;;;;;5010896;28;20741;-71
2023/08/29 06:15:29;;;;;;;8.77;4.65;;;;;;;;;;5024851;22;20241;-67
2023/08/29 06:17:55;;;;;;;6.22;4.50;;;;;;;;;;5017373;28;20189;-66
2023/08/29 06:20:20;;;;;;;6.35;4.80;;;;;;;;;;5019032;28;20217;-66
2023/08/29 06:22:45;;;;;;;6.80;4.63;;;;;;;;;;5020513;28;20189;-67
2023/08/29 06:25:11;;;;;;;7.78;4.00;;;;;;;;;;5015231;28;20217;-66
2023/08/29 06:27:36;;;;;;;5.20;3.88;;;;;;;;;;5000236;28;20190;-66
2023/08/29 06:30:02;;;;;;;6.28;4.80;;;;;;;;;;4997767;28;20245;-67
2023/08/29 06:32:28;;;;;;;5.40;4.47;;;;;;;;;;4996890;28;20183;-66
2023/08/29 06:34:53;;;;;;;5.75;4.07;;;;;;;;;;5001049;28;20205;-66
2023/08/29 06:37:19;;;;;;;5.07;4.07;;;;;;;;;;5000861;28;20183;-66
2023/08/29 06:39:44;;;;;;;5.35;3.95;;;;;;;;;;5001031;28;20272;-67
2023/08/29 06:42:09;;;;;;;7.97;3.65;;;;;;;;;;4999657;28;20218;-67
2023/08/29 06:44:34;;;;;;;4.55;3.15;;;;;;;;;;4999444;28;20179;-67
2023/08/29 06:47:00;;;;;;;6.43;3.15;;;;;;;;;;5001242;28;20206;-67
2023/08/29 06:49:26;;;;;;;3.45;2.85;;;;;;;;;;5001409;28;20233;-67
2023/08/29 06:51:51;;;;;;;4.53;2.90;;;;;;;;;;5000967;28;20678;-67
2023/08/29 06:54:17;;;;;;;3.55;2.80;;;;;;;;;;5001340;28;20278;-67
2023/08/29 06:56:42;;;;;;;5.10;2.83;;;;;;;;;;5001017;28;20209;-67
2023/08/29 06:59:07;;;;;;;4.75;2.63;;;;;;;;;;5001001;28;20207;-67
2023/08/29 07:01:33;;;;;;;6.22;2.45;;;;;;;;;;4999945;28;20697;-67
2023/08/29 07:03:58;;;;;;;3.08;2.53;;;;;;;;;;5000974;28;21361;-67
2023/08/29 07:06:23;;;;;;;2.63;2.13;;;;;;;;;;4999196;28;20230;-67
2023/08/29 07:08:48;;;;;;;3.63;2.80;;;;;;;;;;5000768;28;20187;-67
2023/08/29 07:11:13;;;;;;;3.30;2.10;;;;;;;;;;5000619;28;20237;-65
2023/08/29 07:13:39;;;;;;;5.70;2.45;;;;;;;;;;5000494;28;20265;-67
2023/08/29 07:16:04;;;;;;;3.90;2.22;;;;;;;;;;4999234;28;20219;-66
2023/08/29 07:18:30;;;;;;;4.68;2.42;;;;;;;;;;5000750;28;20217;-66
2023/08/29 07:20:55;;;;;;;5.50;2.67;;;;;;;;;;5000897;28;20206;-66
2023/08/29 07:23:20;;;;;;;3.35;2.60;;;;;;;;;;5001159;28;20179;-65
2023/08/29 07:25:46;;;;;;;5.85;3.10;;;;;;;;;;4999794;28;20208;-66
2023/08/29 07:28:15;;;;;;;4.03;2.88;;;;;;;;;;4999325;28;20663;-67
2023/08/29 07:30:45;;;;;;;5.88;2.75;;;;;;;;;;4998729;28;20191;-66
2023/08/29 07:33:11;;;;;;;3.53;3.22;;;;;;;;;;4997091;28;20217;-66
2023/08/29 07:35:37;;;;;;;5.38;3.53;;;;;;;;;;5000558;28;20202;-66
2023/08/29 07:38:02;;;;;;;3.55;3.20;;;;;;;;;;4998676;28;20182;-66
2023/08/29 07:40:27;;;;;;;6.18;2.92;;;;;;;;;;5000414;28;20575;-67
2023/08/29 07:42:52;;;;;;;4.95;2.92;;;;;;;;;;4999895;28;20665;-67
2023/08/29 07:45:18;;;;;;;5.32;2.58;;;;;;;;;;5000206;28;20253;-66
2023/08/29 07:47:43;;;;;;;4.47;2.72;;;;;;;;;;5000366;28;20737;-66
2023/08/29 07:50:08;;;;;;;3.13;2.55;;;;;;;;;;4998741;28;20194;-67
2023/08/29 07:52:34;;;;;;;2.40;2.20;;;;;;;;;;4999954;28;20190;-66
2023/08/29 07:54:59;;;;;;;5.53;1.80;;;;;;;;;;4998096;28;20242;-67
2023/08/29 07:57:24;;;;;;;3.72;2.05;;;;;;;;;;5000322;28;20252;-66
2023/08/29 07:59:49;;;;;;;8.55;2.47;;;;;;;;;;4999774;28;20684;-66
2023/08/29 08:02:15;;;;;;;4.82;2.03;;;;;;;;;;4999709;28;20183;-67
2023/08/29 08:04:40;;;;;;;4.20;2.53;;;;;;;;;;4996358;28;20214;-66
2023/08/29 08:07:05;;;;;;;3.45;2.47;;;;;;;;;;4998904;28;21453;-66
2023/08/29 08:09:31;;;;;;;3.10;2.50;;;;;;;;;;4998985;28;20261;-66
2023/08/29 08:11:56;;;;;;;3.85;2.75;;;;;;;;;;4999672;28;21098;-67
2023/08/29 08:14:21;;;;;;;4.05;2.05;;;;;;;;;;4998616;28;20261;-66
2023/08/29 08:16:47;;;;;;;2.88;2.47;;;;;;;;;;4999321;28;20225;-67
2023/08/29 08:19:12;;;;;;;3.25;2.55;;;;;;;;;;5000076;28;20256;-67
2023/08/29 08:21:38;;;;;;;5.18;2.75;;;;;;;;;;4999918;28;20182;-67
2023/08/29 08:24:03;;;;;;;4.55;2.90;;;;;;;;;;4999128;28;20237;-67
2023/08/29 08:26:28;;;;;;;4.07;2.67;;;;;;;;;;4999497;28;20227;-67
2023/08/29 08:28:54;;;;;;;3.05;2.50;;;;;;;;;;4999973;28;20265;-67
2023/08/29 08:31:19;;;;;;;2.65;2.30;;;;;;;;;;4992794;28;20317;-67
2023/08/29 08:33:45;;;;;;;4.78;2.70;;;;;;;;;;4994870;28;20190;-67
2023/08/29 08:36:10;;;;;;;4.63;2.40;;;;;;;;;;4998284;28;20241;-67
2023/08/29 08:38:35;;;;;;;4.07;2.08;;;;;;;;;;4999267;28;20170;-67
2023/08/29 08:41:01;;;;;;;2.60;2.30;;;;;;;;;;4997071;28;20210;-66
2023/08/29 08:43:28;;;;;;;4.25;2.42;;;;;;;;;;4997191;28;20185;-67
2023/08/29 08:45:53;;;;;;;3.28;2.25;;;;;;;;;;4999065;28;20241;-66
2023/08/29 08:48:19;;;;;;;3.97;3.03;;;;;;;;;;4999157;28;20202;-67
2023/08/29 08:50:46;;;;;;;3.95;3.20;;;;;;;;;;4998630;28;20657;-67
2023/08/29 08:53:11;;;;;;;3.15;2.08;;;;;;;;;;4996552;28;20187;-67
2023/08/29 08:55:37;;;;;;;6.38;2.90;;;;;;;;;;4998805;28;20221;-66
2023/08/29 08:58:02;;;;;;;2.50;2.15;;;;;;;;;;4998594;28;20175;-67
2023/08/29 09:00:28;;;;;;;3.10;2.22;;;;;;;;;;4997551;28;20243;-68
2023/08/29 09:02:53;;;;;;;1.90;1.52;;;;;;;;;;4997887;28;20664;-67
2023/08/29 09:05:19;;;;;;;2.28;1.58;;;;;;;;;;4997415;28;20658;-66
2023/08/29 09:07:44;;;;;;;2.15;1.63;;;;;;;;;;4998335;28;20284;-67
2023/08/29 09:10:10;;;;;;;2.17;1.60;;;;;;;;;;4997918;28;20187;-67
2023/08/29 09:12:35;;;;;;;7.32;2.28;;;;;;;;;;4998782;28;20270;-67
2023/08/29 09:15:04;;;;;;;3.45;1.95;;;;;;;;;;4998001;28;20292;-67
2023/08/29 09:17:30;;;;;;;2.78;2.45;;;;;;;;;;4998523;28;20214;-66
2023/08/29 09:19:57;;;;;;;7.25;2.45;;;;;;;;;;4996499;28;20262;-67
2023/08/29 09:22:22;;;;;;;1.88;1.67;;;;;;;;;;4997733;28;20183;-66
2023/08/29 09:24:48;;;;;;;1.30;1.15;;;;;;;;;;4995018;28;20244;-67
2023/08/29 09:27:14;;;;;;;4.35;2.10;;;;;;;;;;4996611;28;20175;-66
2023/08/29 09:29:39;;;;;;;3.92;2.78;;;;;;;;;;4997817;28;20202;-66
2023/08/29 09:32:14;;;;;;;3.72;2.58;;;;;;;;;;4998434;28;20214;-66
2023/08/29 09:34:40;;;;;;;3.17;2.20;;;;;;;;;;4995993;28;20711;-66
2023/08/29 09:37:05;;;;;;;3.53;2.25;;;;;;;;;;4997486;28;20187;-66
2023/08/29 09:39:31;;;;;;;2.60;2.00;;;;;;;;;;4998041;28;20690;-66
2023/08/29 09:42:00;;;;;;;2.38;1.33;;;;;;;;;;4998472;28;20184;-66
2023/08/29 09:44:26;;;;;;;3.85;3.05;;;;;;;;;;4997351;28;20225;-65
2023/08/29 09:46:51;;;;;;;2.65;2.38;;;;;;;;;;4997092;28;20198;-66
2023/08/29 09:49:16;;;;;;;4.68;2.67;;;;;;;;;;4997768;28;20179;-67
2023/08/29 09:51:42;;;;;;;2.50;2.23;;;;;;;;;;4999032;28;20191;-66
2023/08/29 09:54:08;;;;;;;3.88;2.40;;;;;;;;;;4997676;28;20456;-66
2023/08/29 09:56:33;;;;;;;4.38;3.03;;;;;;;;;;4997834;28;20199;-67
2023/08/29 09:58:59;;;;;;;2.90;2.30;;;;;;;;;;4994400;28;20191;-66
2023/08/29 10:01:25;;;;;;;5.00;3.55;;;;;;;;;;4997769;28;20610;-67
2023/08/29 10:03:50;;;;;;;3.83;2.97;;;;;;;;;;4996293;28;20564;-67
2023/08/29 10:06:17;;;;;;;2.88;2.67;;;;;;;;;;4991654;28;20207;-65
2023/08/29 10:08:46;;;;;;;4.28;3.15;;;;;;;;;;4992136;28;20306;-66
2023/08/29 10:11:11;;;;;;;6.63;3.78;;;;;;;;;;4997069;28;20634;-66
2023/08/29 10:13:39;;;;;;;4.78;3.70;;;;;;;;;;4996256;28;20183;-66
2023/08/29 10:16:04;;;;;;;4.93;3.53;;;;;;;;;;4997047;28;20257;-67
2023/08/29 10:18:29;;;;;;;3.95;3.47;;;;;;;;;;4994154;28;20830;-66
2023/08/29 10:20:55;;;;;;;4.53;2.90;;;;;;;;;;4994108;28;20685;-67
2023/08/29 10:23:22;;;;;;;4.25;3.40;;;;;;;;;;4996016;28;20183;-66
2023/08/29 10:25:48;;;;;;;4.90;3.58;;;;;;;;;;4996650;28;20211;-67
2023/08/29 10:28:14;;;;;;;4.95;4.35;;;;;;;;;;4996353;28;20234;-67
2023/08/29 10:30:41;;;;;;;5.03;4.53;;;;;;;;;;4997321;28;20199;-66
2023/08/29 10:33:07;;;;;;;4.95;3.42;;;;;;;;;;4997270;28;20237;-66
2023/08/29 10:35:33;;;;;;;5.30;3.95;;;;;;;;;;4998662;28;20673;-66
2023/08/29 10:38:01;;;;;;;4.50;4.10;;;;;;;;;;4998331;28;20183;-67
2023/08/29 10:40:36;;;;;;;4.32;3.40;;;;;;;;;;4999351;28;20578;-66
2023/08/29 10:43:02;;;;;;;6.68;3.58;;;;;;;;;;5001124;28;21081;-66
2023/08/29 10:46:00;;;;;;;3.88;3.42;;;;;;;;;;4998779;28;20202;-66
2023/08/29 10:48:28;;;;;;;4.53;3.78;;;;;;;;;;4977701;28;20286;-67
2023/08/29 10:51:08;;;;;;;3.60;3.28;;;;;;;;;;4998105;28;20191;-65
2023/08/29 10:53:37;;;;;;;5.07;3.58;;;;;;;;;;4999934;28;20179;-66
2023/08/29 10:56:04;;;;;;;5.38;4.55;;;;;;;;;;4996492;28;20203;-66
2023/08/29 10:58:31;;;;;;;6.97;4.45;;;;;;;;;;4997013;28;20669;-66
2023/08/29 11:00:57;;;;;;;5.78;5.05;;;;;;;;;;5000045;28;20302;-66
2023/08/29 11:03:42;;;;;;;11.50;6.07;;;;;;;;;;5000057;28;20183;-66
2023/08/29 11:06:07;;;;;;;6.53;5.82;;;;;;;;;;4999268;28;20685;-66
2023/08/29 11:08:32;;;;;;;8.40;6.57;;;;;;;;;;4999672;28;20198;-65
2023/08/29 11:11:13;;;;;;;5.20;4.70;;;;;;;;;;4999806;28;20736;-67
2023/08/29 11:13:56;;;;;;;6.93;5.70;;;;;;;;;;4999998;28;20567;-67
2023/08/29 11:16:22;;;;;;;6.30;5.40;;;;;;;;;;4999273;28;20226;-67
2023/08/29 11:18:47;;;;;;;7.45;5.93;;;;;;;;;;4998112;28;20187;-66
2023/08/29 11:21:15;;;;;;;7.80;5.85;;;;;;;;;;5000386;28;20353;-66
2023/08/29 11:23:40;;;;;;;6.85;5.75;;;;;;;;;;5000590;28;20182;-66
2023/08/29 11:26:08;;;;;;;6.95;5.85;;;;;;;;;;4997299;28;20199;-66
2023/08/29 11:28:33;;;;;;;6.63;5.75;;;;;;;;;;4997994;28;20877;-65
2023/08/29 11:30:59;;;;;;;5.47;4.88;;;;;;;;;;5000410;28;20212;-65
2023/08/29 11:33:34;;;;;;;10.52;6.18;;;;;;;;;;5000161;28;20213;-67
2023/08/29 11:36:03;;;;;;;8.40;5.80;;;;;;;;;;4999314;28;20573;-66
2023/08/29 11:38:29;;;;;;;6.18;5.13;;;;;;;;;;4998876;28;20231;-66
2023/08/29 11:40:59;;;;;;;7.82;6.03;;;;;;;;;;5000317;28;20246;-66
2023/08/29 11:43:24;;;;;;;6.40;4.63;;;;;;;;;;4998525;28;20183;-65
2023/08/29 11:45:54;;;;;;;5.38;4.88;;;;;;;;;;4997594;28;20206;-66
2023/08/29 11:48:23;;;;;;;5.53;5.03;;;;;;;;;;4999474;28;20420;-67
2023/08/29 11:50:50;;;;;;;4.88;4.38;;;;;;;;;;5000196;28;20266;-66
2023/08/29 11:53:42;;;;;;;5.20;4.70;;;;;;;;;;5000107;28;20230;-66
2023/08/29 11:56:10;;;;;;;8.43;5.75;;;;;;;;;;4996582;28;20224;-67
2023/08/29 11:58:36;;;;;;;3.88;3.47;;;;;;;;;;4999726;28;20179;-67
2023/08/29 12:01:07;;;;;;;6.35;4.68;;;;;;;;;;4999522;28;20301;-66
2023/08/29 12:03:39;;;;;;;5.88;5.30;;;;;;;;;;4999999;28;20210;-66
2023/08/29 12:06:11;;;;;;;5.72;5.13;;;;;;;;;;4998604;28;20202;-67
2023/08/29 12:08:43;;;;;;;6.43;5.63;;;;;;;;;;4997891;28;20562;-66
2023/08/29 12:11:10;;;;;;;6.07;5.45;;;;;;;;;;4999288;28;20218;-66
2023/08/29 12:13:36;;;;;;;4.78;4.35;;;;;;;;;;5000151;28;20696;-65
2023/08/29 12:16:02;;;;;;;5.40;4.60;;;;;;;;;;4994295;28;20313;-66
2023/08/29 12:18:28;;;;;;;6.63;4.95;;;;;;;;;;4999190;28;20278;-66
2023/08/29 12:21:08;;;;;;;5.68;4.82;;;;;;;;;;4998031;28;20215;-66
2023/08/29 12:23:34;;;;;;;5.18;4.72;;;;;;;;;;4999901;28;20175;-66
2023/08/29 12:25:59;;;;;;;5.03;4.53;;;;;;;;;;4998049;28;20743;-66
2023/08/29 12:28:25;;;;;;;5.80;3.90;;;;;;;;;;4998924;28;21298;-66
2023/08/29 12:30:51;;;;;;;6.85;5.25;;;;;;;;;;4999876;28;20183;-66
2023/08/29 12:33:16;;;;;;;5.90;4.85;;;;;;;;;;4999468;28;20190;-66
2023/08/29 12:35:41;;;;;;;5.88;5.15;;;;;;;;;;4998323;28;20559;-66
2023/08/29 12:38:07;;;;;;;8.67;6.47;;;;;;;;;;4999247;28;20579;-66
2023/08/29 12:40:32;;;;;;;7.43;6.70;;;;;;;;;;4999352;28;20479;-66
2023/08/29 12:42:57;;;;;;;5.85;5.25;;;;;;;;;;4992940;28;21321;-67
2023/08/29 12:45:23;;;;;;;7.60;6.68;;;;;;;;;;4997373;28;20205;-67
2023/08/29 12:47:49;;;;;;;7.80;6.38;;;;;;;;;;4995625;28;20182;-67
2023/08/29 12:50:14;;;;;;;6.43;5.28;;;;;;;;;;4997435;28;20191;-67
2023/08/29 12:52:39;;;;;;;7.65;6.60;;;;;;;;;;4998691;28;20199;-66
2023/08/29 12:55:05;;;;;;;7.90;7.10;;;;;;;;;;4998400;28;20238;-66
2023/08/29 12:57:30;;;;;;;7.43;6.65;;;;;;;;;;4995800;28;20183;-66
2023/08/29 12:59:55;;;;;;;6.72;6.03;;;;;;;;;;4996426;28;20210;-66
2023/08/29 13:02:21;;;;;;;6.47;5.07;;;;;;;;;;4998176;28;20199;-66
2023/08/29 13:04:47;;;;;;;6.05;4.18;;;;;;;;;;4998493;28;20486;-66
2023/08/29 13:07:12;;;;;;;4.82;3.38;;;;;;;;;;4995640;28;20183;-66
2023/08/29 13:09:38;;;;;;;3.40;3.03;;;;;;;;;;4997107;28;20195;-66
2023/08/29 13:12:05;;;;;;;3.92;2.50;;;;;;;;;;4998405;28;20873;-67
2023/08/29 13:14:30;;;;;;;4.32;2.13;;;;;;;;;;4998465;28;20182;-65
2023/08/29 13:16:55;;;;;;;2.73;2.40;;;;;;;;;;4996457;28;20594;-66
2023/08/29 13:19:20;;;;;;;3.85;2.22;;;;;;;;;;4997694;28;20463;-65
2023/08/29 13:21:46;;;;;;;4.20;2.50;;;;;;;;;;4998888;28;20183;-65
2023/08/29 13:24:11;;;;;;;3.67;2.30;;;;;;;;;;4998289;28;20178;-67
2023/08/29 13:26:36;;;;;;;3.30;1.58;;;;;;;;;;4998054;28;20199;-67
2023/08/29 13:29:03;;;;;;;3.88;2.15;;;;;;;;;;4997941;28;20182;-66
2023/08/29 13:31:29;;;;;;;3.47;2.17;;;;;;;;;;4998310;28;20225;-66
2023/08/29 13:33:55;;;;;;;2.63;2.38;;;;;;;;;;4997917;28;20274;-66
2023/08/29 13:36:20;;;;;;;3.83;2.30;;;;;;;;;;4996611;28;20286;-66
2023/08/29 13:38:45;;;;;;;2.30;1.85;;;;;;;;;;4997943;28;20553;-67
2023/08/29 13:41:10;;;;;;;5.30;2.03;;;;;;;;;;4997847;28;20615;-66
2023/08/29 13:43:36;;;;;;;2.53;2.03;;;;;;;;;;4998183;28;20185;-67
2023/08/29 13:46:01;;;;;;;3.70;2.15;;;;;;;;;;4996384;28;20281;-66
2023/08/29 13:48:26;;;;;;;5.63;2.25;;;;;;;;;;4997588;28;21114;-67
2023/08/29 13:50:51;;;;;;;2.83;2.08;;;;;;;;;;4997350;28;20695;-67
2023/08/29 13:53:17;;;;;;;3.40;2.20;;;;;;;;;;4996315;28;20684;-66
2023/08/29 13:55:42;;;;;;;2.75;2.13;;;;;;;;;;4997854;28;20218;-67
2023/08/29 13:58:07;;;;;;;4.85;2.30;;;;;;;;;;4997465;28;20198;-66
2023/08/29 14:00:34;;;;;;;3.47;1.70;;;;;;;;;;4998404;28;20203;-67
2023/08/29 14:02:59;;;;;;;3.38;1.70;;;;;;;;;;4996644;28;20180;-67
2023/08/29 14:05:24;;;;;;;6.32;2.30;;;;;;;;;;4996756;28;20575;-66
2023/08/29 14:07:49;;;;;;;3.45;2.20;;;;;;;;;;4998646;28;20764;-67
2023/08/29 14:10:15;;;;;;;4.30;2.00;;;;;;;;;;4999006;28;20273;-67
2023/08/29 14:12:40;;;;;;;3.75;1.60;;;;;;;;;;4999358;28;20190;-67
2023/08/29 14:15:06;;;;;;;2.13;1.67;;;;;;;;;;4997718;28;20809;-67
2023/08/29 14:17:31;;;;;;;7.78;2.20;;;;;;;;;;5000983;28;20660;-67
2023/08/29 14:19:56;;;;;;;3.15;1.85;;;;;;;;;;5001145;28;20207;-67
2023/08/29 14:22:22;;;;;;;4.53;1.98;;;;;;;;;;5001463;28;20269;-67
2023/08/29 14:24:47;;;;;;;2.65;1.83;;;;;;;;;;5001586;28;20603;-67
2023/08/29 14:27:12;;;;;;;5.15;2.28;;;;;;;;;;4995743;28;20206;-67
2023/08/29 14:29:38;;;;;;;2.22;1.50;;;;;;;;;;5001175;28;20175;-67
2023/08/29 14:32:03;;;;;;;3.28;2.10;;;;;;;;;;4998344;28;20183;-65
2023/08/29 14:34:28;;;;;;;3.78;1.85;;;;;;;;;;5000316;28;20443;-67
2023/08/29 14:36:54;;;;;;;4.57;1.63;;;;;;;;;;5000276;28;21228;-66